sensor_id;sensor_type;location;lat;lon;timestamp;pressure;altitude;pressure_sealevel;temperature;humidity
14393;BME280;7281;42.678;23.372;2023-01-10T00:00:42;94341.75;;;9.08;51.82
14393;BME280;7281;42.678;23.372;2023-01-10T00:03:09;94351.16;;;9.25;50.88
14393;BME280;7281;42.678;23.372;2023-01-10T00:05:38;94371.28;;;9.19;50.81
14393;BME280;7281;42.678;23.372;2023-01-10T00:08:06;94351.13;;;9.14;51.00
14393;BME280;7281;42.678;23.372;2023-01-10T00:10:34;94372.03;;;9.14;50.34
14393;BME280;7281;42.678;23.372;2023-01-10T00:13:01;94345.84;;;8.84;51.67
14393;BME280;7281;42.678;23.372;2023-01-10T00:15:47;94348.22;;;8.86;51.59
14393;BME280;7281;42.678;23.372;2023-01-10T00:18:14;94357.66;;;9.02;51.01
14393;BME280;7281;42.678;23.372;2023-01-10T00:20:41;94349.28;;;8.90;51.86
14393;BME280;7281;42.678;23.372;2023-01-10T00:23:10;94350.34;;;9.04;51.23
14393;BME280;7281;42.678;23.372;2023-01-10T00:25:37;94370.50;;;9.39;50.33
14393;BME280;7281;42.678;23.372;2023-01-10T00:28:04;94354.81;;;9.44;50.13
14393;BME280;7281;42.678;23.372;2023-01-10T00:30:53;94364.22;;;9.30;50.56
14393;BME280;7281;42.678;23.372;2023-01-10T00:33:34;94351.41;;;9.08;51.16
14393;BME280;7281;42.678;23.372;2023-01-10T00:36:06;94373.53;;;8.75;52.18
14393;BME280;7281;42.678;23.372;2023-01-10T00:38:33;94307.22;;;8.96;51.58
14393;BME280;7281;42.678;23.372;2023-01-10T00:41:02;94351.41;;;8.31;52.94
14393;BME280;7281;42.678;23.372;2023-01-10T00:43:29;94333.88;;;9.03;51.74
14393;BME280;7281;42.678;23.372;2023-01-10T00:46:14;94329.75;;;9.43;50.51
14393;BME280;7281;42.678;23.372;2023-01-10T00:48:41;94300.69;;;9.29;50.61
14393;BME280;7281;42.678;23.372;2023-01-10T00:51:08;94307.25;;;9.32;50.89
14393;BME280;7281;42.678;23.372;2023-01-10T00:53:35;94306.38;;;8.76;51.58
14393;BME280;7281;42.678;23.372;2023-01-10T00:56:01;94336.25;;;8.28;53.75
14393;BME280;7281;42.678;23.372;2023-01-10T00:58:28;94329.66;;;8.77;52.77
14393;BME280;7281;42.678;23.372;2023-01-10T01:00:55;94341.19;;;9.01;51.99
14393;BME280;7281;42.678;23.372;2023-01-10T01:03:22;94325.53;;;9.37;51.28
14393;BME280;7281;42.678;23.372;2023-01-10T01:05:49;94308.81;;;9.58;50.68
14393;BME280;7281;42.678;23.372;2023-01-10T01:08:17;94328.41;;;9.35;50.96
14393;BME280;7281;42.678;23.372;2023-01-10T01:10:45;94296.00;;;9.51;50.22
14393;BME280;7281;42.678;23.372;2023-01-10T01:13:19;94304.09;;;9.35;50.97
14393;BME280;7281;42.678;23.372;2023-01-10T01:15:47;94306.69;;;8.89;52.32
14393;BME280;7281;42.678;23.372;2023-01-10T01:18:17;94300.91;;;8.82;52.46
14393;BME280;7281;42.678;23.372;2023-01-10T01:20:45;94295.44;;;8.89;51.73
14393;BME280;7281;42.678;23.372;2023-01-10T01:23:13;94282.69;;;9.23;51.13
14393;BME280;7281;42.678;23.372;2023-01-10T01:25:41;94279.03;;;9.34;50.83
14393;BME280;7281;42.678;23.372;2023-01-10T01:28:10;94297.03;;;9.20;50.76
14393;BME280;7281;42.678;23.372;2023-01-10T01:30:37;94316.59;;;8.92;51.75
14393;BME280;7281;42.678;23.372;2023-01-10T01:33:04;94275.59;;;9.13;51.50
14393;BME280;7281;42.678;23.372;2023-01-10T01:35:31;94356.47;;;8.58;52.38
14393;BME280;7281;42.678;23.372;2023-01-10T01:37:59;94317.44;;;9.03;52.08
14393;BME280;7281;42.678;23.372;2023-01-10T01:40:26;94334.34;;;8.70;53.03
14393;BME280;7281;42.678;23.372;2023-01-10T01:42:52;94281.59;;;8.93;52.40
14393;BME280;7281;42.678;23.372;2023-01-10T01:50:25;94290.50;;;9.33;51.03
14393;BME280;7281;42.678;23.372;2023-01-10T01:52:56;94303.56;;;9.28;50.94
14393;BME280;7281;42.678;23.372;2023-01-10T01:55:26;94287.91;;;9.28;51.15
14393;BME280;7281;42.678;23.372;2023-01-10T01:57:56;94292.59;;;9.61;50.34
14393;BME280;7281;42.678;23.372;2023-01-10T02:00:24;94277.91;;;9.85;49.77
14393;BME280;7281;42.678;23.372;2023-01-10T02:02:54;94268.75;;;9.82;50.11
14393;BME280;7281;42.678;23.372;2023-01-10T02:05:30;94273.13;;;10.02;49.61
14393;BME280;7281;42.678;23.372;2023-01-10T02:08:00;94273.22;;;9.72;49.70
14393;BME280;7281;42.678;23.372;2023-01-10T02:10:48;94271.06;;;9.94;49.59
14393;BME280;7281;42.678;23.372;2023-01-10T02:13:20;94240.78;;;9.78;50.30
14393;BME280;7281;42.678;23.372;2023-01-10T02:15:48;94249.13;;;9.85;50.25
14393;BME280;7281;42.678;23.372;2023-01-10T02:18:16;94238.03;;;10.08;49.59
14393;BME280;7281;42.678;23.372;2023-01-10T02:34:49;94231.31;;;9.82;49.89
14393;BME280;7281;42.678;23.372;2023-01-10T02:40:23;94234.94;;;10.01;49.28
14393;BME280;7281;42.678;23.372;2023-01-10T02:43:07;94227.19;;;9.66;50.37
14393;BME280;7281;42.678;23.372;2023-01-10T02:48:09;94217.22;;;9.73;49.77
14393;BME280;7281;42.678;23.372;2023-01-10T02:53:35;94237.31;;;9.97;49.32
14393;BME280;7281;42.678;23.372;2023-01-10T02:56:23;94234.19;;;9.90;49.09
14393;BME280;7281;42.678;23.372;2023-01-10T02:59:11;94239.47;;;9.70;50.07
14393;BME280;7281;42.678;23.372;2023-01-10T03:07:19;94232.94;;;9.78;49.57
14393;BME280;7281;42.678;23.372;2023-01-10T03:12:24;94243.88;;;9.90;49.30
14393;BME280;7281;42.678;23.372;2023-01-10T03:14:54;94245.50;;;9.51;49.91
14393;BME280;7281;42.678;23.372;2023-01-10T03:17:23;94245.28;;;8.97;52.17
14393;BME280;7281;42.678;23.372;2023-01-10T03:19:55;94258.63;;;9.36;50.83
14393;BME280;7281;42.678;23.372;2023-01-10T03:22:24;94243.47;;;9.07;51.46
14393;BME280;7281;42.678;23.372;2023-01-10T03:24:53;94242.94;;;9.36;51.23
14393;BME280;7281;42.678;23.372;2023-01-10T03:27:33;94247.56;;;9.79;49.77
14393;BME280;7281;42.678;23.372;2023-01-10T03:32:34;94250.22;;;9.44;50.26
14393;BME280;7281;42.678;23.372;2023-01-10T03:35:02;94250.19;;;9.74;49.79
14393;BME280;7281;42.678;23.372;2023-01-10T03:37:33;94253.22;;;10.06;48.92
14393;BME280;7281;42.678;23.372;2023-01-10T03:40:34;94248.16;;;9.56;50.30
14393;BME280;7281;42.678;23.372;2023-01-10T03:46:42;94259.28;;;10.01;49.15
14393;BME280;7281;42.678;23.372;2023-01-10T03:49:14;94265.81;;;10.14;48.74
14393;BME280;7281;42.678;23.372;2023-01-10T03:51:41;94257.44;;;10.02;49.08
14393;BME280;7281;42.678;23.372;2023-01-10T03:54:10;94243.91;;;9.85;49.66
14393;BME280;7281;42.678;23.372;2023-01-10T03:56:48;94246.59;;;9.45;50.43
14393;BME280;7281;42.678;23.372;2023-01-10T03:59:20;94232.03;;;10.07;49.31
14393;BME280;7281;42.678;23.372;2023-01-10T04:01:47;94216.09;;;10.09;48.84
14393;BME280;7281;42.678;23.372;2023-01-10T04:04:14;94213.03;;;9.77;49.22
14393;BME280;7281;42.678;23.372;2023-01-10T04:06:41;94192.09;;;9.87;49.19
14393;BME280;7281;42.678;23.372;2023-01-10T04:09:08;94173.84;;;9.62;49.52
14393;BME280;7281;42.678;23.372;2023-01-10T04:11:35;94167.00;;;9.71;49.65
14393;BME280;7281;42.678;23.372;2023-01-10T04:14:03;94144.75;;;9.83;49.51
14393;BME280;7281;42.678;23.372;2023-01-10T04:16:30;94165.06;;;9.02;51.05
14393;BME280;7281;42.678;23.372;2023-01-10T04:18:57;94171.28;;;9.47;50.14
14393;BME280;7281;42.678;23.372;2023-01-10T04:21:24;94170.53;;;9.16;50.71
14393;BME280;7281;42.678;23.372;2023-01-10T04:23:51;94167.16;;;9.20;51.44
14393;BME280;7281;42.678;23.372;2023-01-10T04:26:17;94177.31;;;9.37;50.56
14393;BME280;7281;42.678;23.372;2023-01-10T04:28:44;94210.53;;;9.16;50.79
14393;BME280;7281;42.678;23.372;2023-01-10T04:31:11;94230.41;;;9.23;50.47
14393;BME280;7281;42.678;23.372;2023-01-10T04:33:38;94247.13;;;9.11;50.95
14393;BME280;7281;42.678;23.372;2023-01-10T04:36:07;94251.81;;;9.45;50.26
14393;BME280;7281;42.678;23.372;2023-01-10T04:38:33;94244.47;;;9.67;49.96
14393;BME280;7281;42.678;23.372;2023-01-10T04:41:00;94264.25;;;9.93;49.38
14393;BME280;7281;42.678;23.372;2023-01-10T04:43:27;94236.28;;;9.88;49.09
14393;BME280;7281;42.678;23.372;2023-01-10T04:45:54;94265.31;;;9.97;49.28
14393;BME280;7281;42.678;23.372;2023-01-10T04:48:21;94253.34;;;9.76;49.44
14393;BME280;7281;42.678;23.372;2023-01-10T04:50:49;94226.63;;;9.89;49.70
14393;BME280;7281;42.678;23.372;2023-01-10T04:53:17;94238.94;;;9.83;49.72
14393;BME280;7281;42.678;23.372;2023-01-10T04:55:44;94227.84;;;10.06;49.19
14393;BME280;7281;42.678;23.372;2023-01-10T04:58:11;94228.16;;;9.90;49.25
14393;BME280;7281;42.678;23.372;2023-01-10T05:00:39;94239.22;;;9.67;49.75
14393;BME280;7281;42.678;23.372;2023-01-10T05:03:05;94238.25;;;9.17;51.06
14393;BME280;7281;42.678;23.372;2023-01-10T05:05:32;94213.09;;;9.52;50.31
14393;BME280;7281;42.678;23.372;2023-01-10T05:07:59;94207.25;;;9.90;49.73
14393;BME280;7281;42.678;23.372;2023-01-10T05:10:26;94218.16;;;10.17;50.96
14393;BME280;7281;42.678;23.372;2023-01-10T05:12:53;94199.53;;;9.45;50.35
14393;BME280;7281;42.678;23.372;2023-01-10T05:15:20;94196.78;;;9.90;49.86
14393;BME280;7281;42.678;23.372;2023-01-10T05:17:49;94196.22;;;9.93;49.62
14393;BME280;7281;42.678;23.372;2023-01-10T05:20:16;94200.69;;;9.92;49.57
14393;BME280;7281;42.678;23.372;2023-01-10T05:22:43;94190.59;;;9.56;50.35
14393;BME280;7281;42.678;23.372;2023-01-10T05:25:11;94187.94;;;9.71;50.47
14393;BME280;7281;42.678;23.372;2023-01-10T05:27:40;94172.22;;;9.81;49.94
14393;BME280;7281;42.678;23.372;2023-01-10T05:30:11;94188.97;;;9.75;50.29
14393;BME280;7281;42.678;23.372;2023-01-10T05:32:38;94197.38;;;9.62;50.45
14393;BME280;7281;42.678;23.372;2023-01-10T05:35:05;94202.59;;;9.72;49.86
14393;BME280;7281;42.678;23.372;2023-01-10T05:37:32;94198.72;;;10.28;48.95
14393;BME280;7281;42.678;23.372;2023-01-10T05:39:59;94192.94;;;10.31;48.66
14393;BME280;7281;42.678;23.372;2023-01-10T05:42:26;94205.56;;;10.19;50.15
14393;BME280;7281;42.678;23.372;2023-01-10T05:44:53;94208.97;;;10.68;51.65
14393;BME280;7281;42.678;23.372;2023-01-10T05:47:20;94207.66;;;10.66;50.14
14393;BME280;7281;42.678;23.372;2023-01-10T05:49:46;94202.56;;;10.84;50.48
14393;BME280;7281;42.678;23.372;2023-01-10T05:52:13;94208.97;;;10.68;49.24
14393;BME280;7281;42.678;23.372;2023-01-10T05:54:41;94212.72;;;10.96;48.94
14393;BME280;7281;42.678;23.372;2023-01-10T05:57:08;94213.94;;;10.70;48.55
14393;BME280;7281;42.678;23.372;2023-01-10T05:59:35;94202.13;;;10.72;48.82
14393;BME280;7281;42.678;23.372;2023-01-10T06:02:01;94196.38;;;10.70;48.30
14393;BME280;7281;42.678;23.372;2023-01-10T06:04:28;94201.19;;;10.53;48.49
14393;BME280;7281;42.678;23.372;2023-01-10T06:06:55;94220.78;;;10.07;49.30
14393;BME280;7281;42.678;23.372;2023-01-10T06:09:22;94200.94;;;10.50;48.92
14393;BME280;7281;42.678;23.372;2023-01-10T06:11:49;94212.94;;;10.61;48.96
14393;BME280;7281;42.678;23.372;2023-01-10T06:14:17;94222.47;;;10.85;48.19
14393;BME280;7281;42.678;23.372;2023-01-10T06:16:45;94218.94;;;11.05;47.37
14393;BME280;7281;42.678;23.372;2023-01-10T06:19:13;94221.88;;;10.93;47.24
14393;BME280;7281;42.678;23.372;2023-01-10T06:21:40;94208.75;;;10.98;46.78
14393;BME280;7281;42.678;23.372;2023-01-10T06:24:07;94215.16;;;11.16;46.73
14393;BME280;7281;42.678;23.372;2023-01-10T06:26:34;94214.34;;;11.20;46.95
14393;BME280;7281;42.678;23.372;2023-01-10T06:29:01;94203.50;;;10.98;47.67
14393;BME280;7281;42.678;23.372;2023-01-10T06:31:27;94206.56;;;11.10;47.07
14393;BME280;7281;42.678;23.372;2023-01-10T06:33:54;94204.97;;;11.14;47.08
14393;BME280;7281;42.678;23.372;2023-01-10T06:36:21;94197.09;;;11.14;46.95
14393;BME280;7281;42.678;23.372;2023-01-10T06:38:48;94196.00;;;10.87;47.47
14393;BME280;7281;42.678;23.372;2023-01-10T06:41:15;94185.03;;;10.41;48.01
14393;BME280;7281;42.678;23.372;2023-01-10T06:43:44;94202.78;;;10.54;48.63
14393;BME280;7281;42.678;23.372;2023-01-10T06:46:13;94193.09;;;10.88;47.89
14393;BME280;7281;42.678;23.372;2023-01-10T06:48:42;94197.94;;;11.05;47.77
14393;BME280;7281;42.678;23.372;2023-01-10T06:51:15;94198.41;;;11.12;47.65
14393;BME280;7281;42.678;23.372;2023-01-10T06:53:45;94198.66;;;11.15;47.67
14393;BME280;7281;42.678;23.372;2023-01-10T06:56:12;94201.88;;;11.07;48.39
14393;BME280;7281;42.678;23.372;2023-01-10T06:58:39;94199.91;;;11.23;47.76
14393;BME280;7281;42.678;23.372;2023-01-10T07:01:12;94194.81;;;11.37;47.91
14393;BME280;7281;42.678;23.372;2023-01-10T07:03:39;94192.53;;;11.25;48.33
14393;BME280;7281;42.678;23.372;2023-01-10T07:06:07;94194.38;;;11.24;49.00
14393;BME280;7281;42.678;23.372;2023-01-10T07:08:38;94190.03;;;11.39;48.88
14393;BME280;7281;42.678;23.372;2023-01-10T07:11:07;94183.97;;;11.43;48.66
14393;BME280;7281;42.678;23.372;2023-01-10T07:13:34;94187.53;;;11.29;49.51
14393;BME280;7281;42.678;23.372;2023-01-10T07:16:12;94180.66;;;11.33;49.77
14393;BME280;7281;42.678;23.372;2023-01-10T07:18:41;94180.16;;;11.31;49.86
14393;BME280;7281;42.678;23.372;2023-01-10T07:21:09;94180.97;;;11.31;49.60
14393;BME280;7281;42.678;23.372;2023-01-10T07:23:36;94167.34;;;11.24;50.44
14393;BME280;7281;42.678;23.372;2023-01-10T07:26:05;94173.94;;;11.50;49.75
14393;BME280;7281;42.678;23.372;2023-01-10T07:28:32;94177.75;;;10.72;51.35
14393;BME280;7281;42.678;23.372;2023-01-10T07:31:03;94179.81;;;10.80;51.45
14393;BME280;7281;42.678;23.372;2023-01-10T07:33:31;94170.78;;;10.57;52.16
14393;BME280;7281;42.678;23.372;2023-01-10T07:35:59;94167.81;;;11.02;51.48
14393;BME280;7281;42.678;23.372;2023-01-10T07:38:27;94165.91;;;11.42;50.26
14393;BME280;7281;42.678;23.372;2023-01-10T07:40:54;94155.72;;;11.59;50.08
14393;BME280;7281;42.678;23.372;2023-01-10T07:43:20;94164.75;;;11.53;50.61
14393;BME280;7281;42.678;23.372;2023-01-10T07:45:47;94170.06;;;11.43;50.72
14393;BME280;7281;42.678;23.372;2023-01-10T07:48:14;94157.47;;;11.45;51.30
14393;BME280;7281;42.678;23.372;2023-01-10T07:50:41;94153.63;;;11.61;50.78
14393;BME280;7281;42.678;23.372;2023-01-10T07:53:08;94161.03;;;11.54;51.41
14393;BME280;7281;42.678;23.372;2023-01-10T07:55:36;94162.50;;;11.12;52.41
14393;BME280;7281;42.678;23.372;2023-01-10T07:58:05;94159.53;;;11.48;51.20
14393;BME280;7281;42.678;23.372;2023-01-10T08:00:34;94158.28;;;11.16;52.10
14393;BME280;7281;42.678;23.372;2023-01-10T08:03:00;94157.38;;;11.55;51.20
14393;BME280;7281;42.678;23.372;2023-01-10T08:05:28;94154.88;;;11.68;50.82
14393;BME280;7281;42.678;23.372;2023-01-10T08:07:54;94167.78;;;11.65;51.22
14393;BME280;7281;42.678;23.372;2023-01-10T08:10:25;94156.97;;;11.90;50.63
14393;BME280;7281;42.678;23.372;2023-01-10T08:12:52;94156.44;;;11.93;50.75
14393;BME280;7281;42.678;23.372;2023-01-10T08:15:19;94156.16;;;11.71;50.92
14393;BME280;7281;42.678;23.372;2023-01-10T08:17:46;94149.94;;;11.62;51.55
14393;BME280;7281;42.678;23.372;2023-01-10T08:20:13;94156.94;;;11.48;51.42
14393;BME280;7281;42.678;23.372;2023-01-10T08:22:40;94152.28;;;11.40;51.99
14393;BME280;7281;42.678;23.372;2023-01-10T08:25:07;94147.25;;;11.43;51.80
14393;BME280;7281;42.678;23.372;2023-01-10T08:27:34;94155.19;;;11.62;51.36
14393;BME280;7281;42.678;23.372;2023-01-10T08:30:05;94131.50;;;11.19;52.77
14393;BME280;7281;42.678;23.372;2023-01-10T08:32:32;94128.69;;;11.11;52.75
14393;BME280;7281;42.678;23.372;2023-01-10T08:34:58;94133.78;;;10.97;53.26
14393;BME280;7281;42.678;23.372;2023-01-10T08:37:25;94145.91;;;10.55;54.03
14393;BME280;7281;42.678;23.372;2023-01-10T08:39:52;94133.06;;;10.58;54.54
14393;BME280;7281;42.678;23.372;2023-01-10T08:42:19;94110.72;;;10.99;53.56
14393;BME280;7281;42.678;23.372;2023-01-10T08:44:46;94117.59;;;11.43;52.47
14393;BME280;7281;42.678;23.372;2023-01-10T08:47:13;94104.25;;;11.15;52.97
14393;BME280;7281;42.678;23.372;2023-01-10T08:49:59;94098.13;;;11.25;53.16
14393;BME280;7281;42.678;23.372;2023-01-10T08:52:26;94096.69;;;11.38;52.81
14393;BME280;7281;42.678;23.372;2023-01-10T08:54:52;94109.34;;;11.31;53.30
14393;BME280;7281;42.678;23.372;2023-01-10T08:57:19;94101.50;;;11.54;52.84
14393;BME280;7281;42.678;23.372;2023-01-10T08:59:46;94101.25;;;11.51;52.66
14393;BME280;7281;42.678;23.372;2023-01-10T09:02:13;94089.16;;;11.55;52.67
14393;BME280;7281;42.678;23.372;2023-01-10T09:04:40;94090.09;;;11.87;52.57
14393;BME280;7281;42.678;23.372;2023-01-10T09:07:07;94092.97;;;11.44;52.71
14393;BME280;7281;42.678;23.372;2023-01-10T09:09:35;94082.69;;;10.95;54.04
14393;BME280;7281;42.678;23.372;2023-01-10T09:12:02;94069.88;;;11.41;53.02
14393;BME280;7281;42.678;23.372;2023-01-10T09:14:49;94084.06;;;11.63;53.04
14393;BME280;7281;42.678;23.372;2023-01-10T09:17:16;94087.09;;;11.75;51.77
14393;BME280;7281;42.678;23.372;2023-01-10T09:19:43;94092.31;;;11.52;52.40
14393;BME280;7281;42.678;23.372;2023-01-10T09:22:10;94093.69;;;10.97;54.32
14393;BME280;7281;42.678;23.372;2023-01-10T09:24:37;94088.16;;;11.27;53.73
14393;BME280;7281;42.678;23.372;2023-01-10T09:27:04;94079.00;;;11.24;53.92
14393;BME280;7281;42.678;23.372;2023-01-10T09:29:31;94079.41;;;11.08;54.33
14393;BME280;7281;42.678;23.372;2023-01-10T09:31:58;94073.88;;;11.14;54.53
14393;BME280;7281;42.678;23.372;2023-01-10T09:34:25;94075.28;;;10.73;55.59
14393;BME280;7281;42.678;23.372;2023-01-10T09:36:52;94077.38;;;11.29;54.21
14393;BME280;7281;42.678;23.372;2023-01-10T09:39:19;94065.75;;;11.58;53.34
14393;BME280;7281;42.678;23.372;2023-01-10T09:49:37;94035.63;;;11.56;53.34
14393;BME280;7281;42.678;23.372;2023-01-10T09:52:19;94039.94;;;11.89;52.84
14393;BME280;7281;42.678;23.372;2023-01-10T09:54:49;94037.91;;;11.62;53.17
14393;BME280;7281;42.678;23.372;2023-01-10T09:57:19;94039.00;;;11.80;52.91
14393;BME280;7281;42.678;23.372;2023-01-10T09:59:48;94043.41;;;11.61;53.74
14393;BME280;7281;42.678;23.372;2023-01-10T10:02:30;94022.19;;;11.81;52.50
14393;BME280;7281;42.678;23.372;2023-01-10T10:05:22;94026.72;;;11.09;54.98
14393;BME280;7281;42.678;23.372;2023-01-10T10:07:57;94023.19;;;11.19;55.01
14393;BME280;7281;42.678;23.372;2023-01-10T10:10:30;94019.88;;;11.56;54.17
14393;BME280;7281;42.678;23.372;2023-01-10T10:13:23;94002.41;;;11.88;52.71
14393;BME280;7281;42.678;23.372;2023-01-10T10:21:43;94026.31;;;11.87;52.46
14393;BME280;7281;42.678;23.372;2023-01-10T10:32:22;94018.28;;;10.65;55.22
14393;BME280;7281;42.678;23.372;2023-01-10T10:35:01;94008.63;;;10.84;55.04
14393;BME280;7281;42.678;23.372;2023-01-10T10:37:32;94005.06;;;10.75;55.07
14393;BME280;7281;42.678;23.372;2023-01-10T10:42:35;93999.28;;;11.02;54.85
14393;BME280;7281;42.678;23.372;2023-01-10T10:47:48;93995.22;;;11.33;54.22
14393;BME280;7281;42.678;23.372;2023-01-10T10:50:33;93996.00;;;11.34;54.03
14393;BME280;7281;42.678;23.372;2023-01-10T10:53:02;93977.47;;;11.49;53.88
14393;BME280;7281;42.678;23.372;2023-01-10T10:55:36;93951.81;;;11.03;54.23
14393;BME280;7281;42.678;23.372;2023-01-10T10:58:06;93983.22;;;11.51;53.99
14393;BME280;7281;42.678;23.372;2023-01-10T11:00:33;93991.38;;;11.49;53.44
14393;BME280;7281;42.678;23.372;2023-01-10T11:05:43;93996.22;;;11.37;54.18
14393;BME280;7281;42.678;23.372;2023-01-10T11:08:13;93984.91;;;10.99;55.07
14393;BME280;7281;42.678;23.372;2023-01-10T11:10:48;93975.41;;;11.46;54.25
14393;BME280;7281;42.678;23.372;2023-01-10T11:13:30;93966.81;;;11.59;54.01
14393;BME280;7281;42.678;23.372;2023-01-10T11:16:06;93967.84;;;11.20;54.55
14393;BME280;7281;42.678;23.372;2023-01-10T11:18:33;93959.78;;;11.17;54.62
14393;BME280;7281;42.678;23.372;2023-01-10T11:21:14;93965.34;;;11.34;54.50
14393;BME280;7281;42.678;23.372;2023-01-10T11:24:42;93965.94;;;11.07;55.53
14393;BME280;7281;42.678;23.372;2023-01-10T11:27:04;93968.09;;;11.00;55.39
14393;BME280;7281;42.678;23.372;2023-01-10T11:29:45;93964.16;;;11.64;54.11
14393;BME280;7281;42.678;23.372;2023-01-10T11:32:15;93961.16;;;10.67;56.12
14393;BME280;7281;42.678;23.372;2023-01-10T11:34:49;93958.25;;;11.35;55.24
14393;BME280;7281;42.678;23.372;2023-01-10T11:37:30;93962.38;;;11.59;54.44
14393;BME280;7281;42.678;23.372;2023-01-10T11:42:40;93969.47;;;11.77;54.42
14393;BME280;7281;42.678;23.372;2023-01-10T11:47:49;93960.88;;;11.35;55.64
14393;BME280;7281;42.678;23.372;2023-01-10T11:50:32;93957.41;;;11.58;55.13
14393;BME280;7281;42.678;23.372;2023-01-10T11:53:00;93953.44;;;11.42;55.26
14393;BME280;7281;42.678;23.372;2023-01-10T11:55:29;93949.88;;;11.33;55.79
14393;BME280;7281;42.678;23.372;2023-01-10T11:58:12;93961.78;;;11.67;54.50
14393;BME280;7281;42.678;23.372;2023-01-10T12:00:49;93959.88;;;11.31;56.26
14393;BME280;7281;42.678;23.372;2023-01-10T12:03:24;93947.63;;;11.45;55.03
14393;BME280;7281;42.678;23.372;2023-01-10T12:06:03;93942.94;;;11.60;55.24
14393;BME280;7281;42.678;23.372;2023-01-10T12:08:37;93952.78;;;11.50;54.77
14393;BME280;7281;42.678;23.372;2023-01-10T12:11:27;93949.97;;;11.04;55.18
14393;BME280;7281;42.678;23.372;2023-01-10T12:13:58;93946.41;;;11.37;55.11
14393;BME280;7281;42.678;23.372;2023-01-10T12:18:55;93953.66;;;11.64;54.56
14393;BME280;7281;42.678;23.372;2023-01-10T12:23:58;93953.56;;;11.50;55.04
14393;BME280;7281;42.678;23.372;2023-01-10T12:26:30;93960.00;;;11.20;55.64
14393;BME280;7281;42.678;23.372;2023-01-10T12:29:04;93955.06;;;11.38;56.04
14393;BME280;7281;42.678;23.372;2023-01-10T12:31:35;93971.81;;;11.79;54.32
14393;BME280;7281;42.678;23.372;2023-01-10T12:34:12;93968.53;;;11.50;55.30
14393;BME280;7281;42.678;23.372;2023-01-10T12:37:17;93972.97;;;11.31;55.76
14393;BME280;7281;42.678;23.372;2023-01-10T12:40:01;93959.34;;;11.71;55.02
14393;BME280;7281;42.678;23.372;2023-01-10T12:42:47;93952.75;;;11.73;54.84
14393;BME280;7281;42.678;23.372;2023-01-10T12:45:39;93944.66;;;11.51;55.34
14393;BME280;7281;42.678;23.372;2023-01-10T12:51:05;93942.09;;;11.46;55.78
14393;BME280;7281;42.678;23.372;2023-01-10T12:53:37;93950.69;;;11.70;55.25
14393;BME280;7281;42.678;23.372;2023-01-10T12:56:11;93952.94;;;11.40;55.66
14393;BME280;7281;42.678;23.372;2023-01-10T12:58:42;93961.59;;;11.96;54.38
14393;BME280;7281;42.678;23.372;2023-01-10T13:01:33;93951.81;;;11.46;54.98
14393;BME280;7281;42.678;23.372;2023-01-10T13:04:12;93963.03;;;10.85;56.25
14393;BME280;7281;42.678;23.372;2023-01-10T13:06:42;93966.91;;;11.11;55.69
14393;BME280;7281;42.678;23.372;2023-01-10T13:09:18;93964.28;;;11.11;56.15
14393;BME280;7281;42.678;23.372;2023-01-10T13:12:07;93961.59;;;10.74;56.88
14393;BME280;7281;42.678;23.372;2023-01-10T13:14:47;93965.94;;;11.07;55.90
14393;BME280;7281;42.678;23.372;2023-01-10T13:22:51;93968.94;;;11.19;56.35
14393;BME280;7281;42.678;23.372;2023-01-10T13:25:26;93970.78;;;10.95;56.91
14393;BME280;7281;42.678;23.372;2023-01-10T13:27:56;93975.03;;;11.34;55.81
14393;BME280;7281;42.678;23.372;2023-01-10T13:30:35;93973.34;;;11.00;56.69
14393;BME280;7281;42.678;23.372;2023-01-10T13:35:48;93977.34;;;11.40;55.21
14393;BME280;7281;42.678;23.372;2023-01-10T13:38:17;93980.47;;;11.18;56.19
14393;BME280;7281;42.678;23.372;2023-01-10T13:41:00;93967.81;;;11.26;56.56
14393;BME280;7281;42.678;23.372;2023-01-10T13:44:06;93962.84;;;11.43;55.60
14393;BME280;7281;42.678;23.372;2023-01-10T13:46:45;93966.66;;;11.32;56.04
14393;BME280;7281;42.678;23.372;2023-01-10T13:52:19;93977.38;;;11.16;56.63
14393;BME280;7281;42.678;23.372;2023-01-10T13:55:00;93973.47;;;10.67;58.14
14393;BME280;7281;42.678;23.372;2023-01-10T13:57:49;93978.56;;;10.82;58.25
14393;BME280;7281;42.678;23.372;2023-01-10T14:00:40;93973.84;;;11.02;58.10
14393;BME280;7281;42.678;23.372;2023-01-10T14:06:29;93966.75;;;11.27;56.75
14393;BME280;7281;42.678;23.372;2023-01-10T14:08:59;93980.38;;;11.47;56.64
14393;BME280;7281;42.678;23.372;2023-01-10T14:16:51;93959.41;;;10.81;58.16
14393;BME280;7281;42.678;23.372;2023-01-10T14:21:51;93975.41;;;11.64;55.90
14393;BME280;7281;42.678;23.372;2023-01-10T14:24:42;93984.41;;;11.40;56.36
14393;BME280;7281;42.678;23.372;2023-01-10T14:27:16;93992.97;;;11.03;57.17
14393;BME280;7281;42.678;23.372;2023-01-10T14:29:48;93997.88;;;11.09;57.45
14393;BME280;7281;42.678;23.372;2023-01-10T14:32:26;93990.34;;;10.79;58.57
14393;BME280;7281;42.678;23.372;2023-01-10T14:35:00;93983.03;;;11.23;56.79
14393;BME280;7281;42.678;23.372;2023-01-10T14:37:31;93976.19;;;11.28;56.71
14393;BME280;7281;42.678;23.372;2023-01-10T14:40:23;93980.75;;;10.93;57.49
14393;BME280;7281;42.678;23.372;2023-01-10T14:42:52;93975.72;;;10.78;56.97
14393;BME280;7281;42.678;23.372;2023-01-10T14:47:57;93994.59;;;10.99;56.72
14393;BME280;7281;42.678;23.372;2023-01-10T14:50:26;93997.41;;;11.07;55.95
14393;BME280;7281;42.678;23.372;2023-01-10T14:52:54;94003.06;;;11.14;55.44
14393;BME280;7281;42.678;23.372;2023-01-10T14:55:21;94006.25;;;10.88;55.91
14393;BME280;7281;42.678;23.372;2023-01-10T14:57:57;94008.31;;;10.91;55.71
14393;BME280;7281;42.678;23.372;2023-01-10T15:00:29;94007.41;;;10.77;56.01
14393;BME280;7281;42.678;23.372;2023-01-10T15:02:58;94028.88;;;11.02;55.19
14393;BME280;7281;42.678;23.372;2023-01-10T15:05:32;94032.75;;;10.29;57.43
14393;BME280;7281;42.678;23.372;2023-01-10T15:08:26;94028.03;;;10.60;56.11
14393;BME280;7281;42.678;23.372;2023-01-10T15:10:58;94039.22;;;10.94;54.82
14393;BME280;7281;42.678;23.372;2023-01-10T15:13:27;94036.16;;;10.58;55.08
14393;BME280;7281;42.678;23.372;2023-01-10T15:15:55;94035.66;;;11.08;54.76